Schneifelwetter: Wetterstation Hallschlag, 537 m . NN
Wetterdaten: Sonntag, 22.03.2009
Datum Zeit Temp. A. Temp. 2 Feuchte A. Luftdruck Regen Wind Richtung Richtung Sonnenschein Helligkeit T Regen Taupunkt Windchill
22.03.2009 00:01 -3,2 C -5,0 C 75 % 1024 hPa 0,0 l/m 0,0 km/h (0 Bft) N-NW 335 0 min 0 lux 0,00 min -7,0 C -3,2 C
22.03.2009 00:16 -3,2 C -5,0 C 75 % 1023 hPa 0,0 l/m 0,0 km/h (0 Bft) N-NW 335 0 min 0 lux 0,00 min -7,0 C -3,2 C
22.03.2009 00:31 -3,1 C -5,1 C 75 % 1023 hPa 0,0 l/m 0,0 km/h (0 Bft) N-NW 335 0 min 0 lux 0,00 min -6,9 C -3,1 C
22.03.2009 00:46 -3,4 C -5,4 C 75 % 1023 hPa 0,0 l/m 2,4 km/h (1 Bft) N-NW 330 0 min 0 lux 0,00 min -7,2 C -3,4 C
22.03.2009 01:01 -3,7 C -5,6 C 75 % 1023 hPa 0,0 l/m 3,7 km/h (1 Bft) N-NW 330 0 min 0 lux 0,00 min -7,5 C -3,7 C
22.03.2009 01:16 -3,8 C -5,7 C 76 % 1023 hPa 0,0 l/m 0,0 km/h (0 Bft) N-NW 330 0 min 0 lux 0,00 min -7,4 C -3,8 C
22.03.2009 01:31 -3,8 C -5,5 C 76 % 1023 hPa 0,0 l/m 0,1 km/h (0 Bft) N-NW 330 0 min 0 lux 0,00 min -7,4 C -3,8 C
22.03.2009 01:46 -3,8 C -5,5 C 78 % 1023 hPa 0,0 l/m 0,1 km/h (0 Bft) N-NW 330 0 min 0 lux 0,00 min -7,1 C -3,8 C
22.03.2009 02:01 -4,0 C -5,9 C 77 % 1023 hPa 0,0 l/m 0,0 km/h (0 Bft) N-NW 330 0 min 0 lux 0,00 min -7,4 C -4,0 C
22.03.2009 02:16 -4,2 C -6,2 C 78 % 1023 hPa 0,0 l/m 0,0 km/h (0 Bft) N-NW 330 0 min 0 lux 0,00 min -7,4 C -4,2 C
22.03.2009 02:31 -4,2 C -6,1 C 79 % 1023 hPa 0,0 l/m 0,0 km/h (0 Bft) N-NW 330 0 min 0 lux 0,00 min -7,3 C -4,2 C
22.03.2009 02:46 -4,3 C -6,1 C 79 % 1023 hPa 0,0 l/m 0,0 km/h (0 Bft) N-NW 330 0 min 0 lux 0,00 min -7,4 C -4,3 C
22.03.2009 03:01 -4,5 C -6,1 C 79 % 1023 hPa 0,0 l/m 0,0 km/h (0 Bft) N-NW 330 0 min 0 lux 0,00 min -7,6 C -4,5 C
22.03.2009 03:16 -4,6 C -6,2 C 80 % 1022 hPa 0,0 l/m 0,1 km/h (0 Bft) N-NW 330 0 min 0 lux 0,00 min -7,5 C -4,6 C
22.03.2009 03:31 -4,8 C -6,3 C 80 % 1022 hPa 0,0 l/m 4,6 km/h (1 Bft) W-NW 285 0 min 0 lux 0,00 min -7,7 C -4,8 C
22.03.2009 03:46 -4,8 C -6,2 C 81 % 1022 hPa 0,0 l/m 8,1 km/h (2 Bft) W 280 0 min 0 lux 0,00 min -7,5 C -6,8 C
22.03.2009 04:01 -4,8 C -6,3 C 81 % 1022 hPa 0,0 l/m 5,2 km/h (1 Bft) W 265 0 min 0 lux 0,00 min -7,5 C -4,8 C
22.03.2009 04:16 -4,6 C -5,6 C 82 % 1022 hPa 0,0 l/m 6,4 km/h (2 Bft) W 265 0 min 0 lux 0,00 min -7,2 C -4,5 C
22.03.2009 04:31 -4,5 C -5,5 C 81 % 1022 hPa 0,0 l/m 6,1 km/h (2 Bft) W 260 0 min 0 lux 0,00 min -7,3 C -4,5 C
22.03.2009 04:46 -4,3 C -5,4 C 83 % 1022 hPa 0,0 l/m 5,0 km/h (1 Bft) W-SW 255 0 min 0 lux 0,00 min -6,7 C -4,3 C
22.03.2009 05:01 -4,0 C -4,9 C 82 % 1022 hPa 0,0 l/m 6,7 km/h (2 Bft) W22.5 265 0 min 0 lux 0,00 min -6,6 C -4,3 C
22.03.2009 05:16 -3,6 C -4,5 C 84 % 1022 hPa 0,0 l/m 7,1 km/h (2 Bft) W22.5 260 0 min 0 lux 0,00 min -5,9 C -4,4 C
22.03.2009 05:31 -3,5 C -4,8 C 82 % 1022 hPa 0,0 l/m 6,2 km/h (2 Bft) SW 235 0 min 0 lux 0,00 min -6,1 C -3,5 C
22.03.2009 05:46 -3,8 C -4,9 C 82 % 1022 hPa 0,0 l/m 0,0 km/h (0 Bft) W-SW 240 0 min 0 lux 0,00 min -6,4 C -3,8 C
22.03.2009 06:01 -3,8 C -5,1 C 83 % 1022 hPa 0,0 l/m 1,4 km/h (1 Bft) W-SW 240 0 min 0 lux 0,00 min -6,3 C -3,8 C
22.03.2009 06:16 -4,0 C -5,3 C 83 % 1022 hPa 0,0 l/m 0,0 km/h (0 Bft) W-SW 240 0 min 47 lux 0,00 min -6,4 C -4,0 C
22.03.2009 06:31 -4,1 C -5,3 C 84 % 1022 hPa 0,0 l/m 0,3 km/h (0 Bft) W-SW 240 0 min 316 lux 0,00 min -6,4 C -4,1 C
22.03.2009 06:46 -3,9 C -4,9 C 86 % 1022 hPa 0,0 l/m 0,3 km/h (0 Bft) W-SW 240 0 min 463 lux 0,00 min -5,9 C -3,9 C
22.03.2009 07:01 -2,6 C -3,6 C 91 % 1023 hPa 0,0 l/m 7,2 km/h (2 Bft) W22.5 280 0 min 517 lux 0,00 min -3,9 C -3,5 C
22.03.2009 07:16 -1,4 C -2,1 C 91 % 1023 hPa 0,0 l/m 10,5 km/h (2 Bft) W22.5 280 0 min 1,06 klux 0,00 min -2,7 C -5,4 C
22.03.2009 07:31 -0,6 C -0,8 C 92 % 1023 hPa 0,0 l/m 9,1 km/h (2 Bft) W45 280 0 min 2,13 klux 0,00 min -1,7 C -3,3 C
22.03.2009 07:46 -0,3 C -0,4 C 92 % 1023 hPa 0,0 l/m 9,6 km/h (2 Bft) NW22.5 305 0 min 2,23 klux 0,00 min -1,4 C -3,4 C
22.03.2009 08:02 0,3 C 0,1 C 93 % 1023 hPa 0,0 l/m 12,9 km/h (3 Bft) NW45 325 0 min 3,54 klux 0,00 min -0,7 C -5,3 C
22.03.2009 08:17 0,7 C 0,6 C 94 % 1022 hPa 0,0 l/m 20,5 km/h (4 Bft) W-NW67.5 285 0 min 4,04 klux 0,00 min -0,2 C -9,0 C
22.03.2009 08:32 1,0 C 0,8 C 94 % 1023 hPa 0,0 l/m 16,0 km/h (3 Bft) N-NW67.5 340 0 min 3,89 klux 0,00 min 0,1 C -6,3 C
22.03.2009 08:47 1,2 C 1,1 C 95 % 1023 hPa 0,0 l/m 27,6 km/h (4 Bft) N-NW67.5 340 0 min 4,22 klux 0,00 min 0,5 C -11,0 C
22.03.2009 09:02 1,3 C 1,2 C 95 % 1023 hPa 0,0 l/m 26,8 km/h (4 Bft) N-NW45 340 0 min 5,56 klux 0,00 min 0,6 C -10,6 C
22.03.2009 09:16 1,5 C 1,5 C 95 % 1023 hPa 0,0 l/m 25,4 km/h (4 Bft) N-NW67.5 340 0 min 6,05 klux 0,00 min 0,8 C -9,8 C
22.03.2009 09:31 1,6 C 1,7 C 95 % 1023 hPa 0,0 l/m 20,6 km/h (4 Bft) N-NW67.5 340 0 min 7,77 klux 0,00 min 0,9 C -7,8 C
22.03.2009 09:46 1,9 C 2,1 C 95 % 1023 hPa 0,0 l/m 22,2 km/h (4 Bft) N67.5 350 0 min 10,9 klux 0,00 min 1,2 C -8,1 C
22.03.2009 10:01 2,3 C 2,8 C 94 % 1024 hPa 0,0 l/m 17,0 km/h (3 Bft) N67.5 360 0 min 15,9 klux 0,00 min 1,4 C -5,3 C
22.03.2009 10:17 2,9 C 3,6 C 93 % 1024 hPa 0,0 l/m 19,2 km/h (3 Bft) N-NW45 345 0 min 17,6 klux 0,00 min 1,9 C -5,5 C
22.03.2009 10:31 3,2 C 4,4 C 92 % 1024 hPa 0,0 l/m 16,3 km/h (3 Bft) N45 350 0 min 23,3 klux 0,00 min 2,0 C -3,8 C
22.03.2009 10:46 3,5 C 5,2 C 91 % 1024 hPa 0,0 l/m 21,3 km/h (4 Bft) N-NW45 345 0 min 25,2 klux 0,00 min 2,2 C -5,6 C
22.03.2009 11:01 4,0 C 5,7 C 89 % 1024 hPa 0,0 l/m 22,5 km/h (4 Bft) N-NW45 330 0 min 31,9 klux 0,00 min 2,4 C -5,4 C
22.03.2009 11:16 4,2 C 5,7 C 88 % 1024 hPa 0,0 l/m 13,2 km/h (3 Bft) NW45 325 0 min 20,6 klux 0,00 min 2,4 C -0,9 C
22.03.2009 11:31 4,4 C 5,7 C 88 % 1024 hPa 0,0 l/m 10,9 km/h (2 Bft) W-SW22.5 255 0 min 22,7 klux 0,00 min 2,6 C 0,8 C
22.03.2009 11:46 4,3 C 5,5 C 87 % 1024 hPa 0,0 l/m 19,2 km/h (3 Bft) NW45 305 0 min 19,3 klux 0,00 min 2,3 C -3,7 C
22.03.2009 12:01 4,4 C 5,7 C 87 % 1024 hPa 0,0 l/m 17,1 km/h (3 Bft) W-NW45 285 0 min 24,1 klux 0,00 min 2,4 C -2,7 C
22.03.2009 12:16 4,6 C 5,7 C 86 % 1025 hPa 0,0 l/m 31,7 km/h (5 Bft) NW45 305 0 min 26,7 klux 0,00 min 2,5 C -7,4 C
22.03.2009 12:31 4,2 C 5,3 C 84 % 1024 hPa 0,0 l/m 14,3 km/h (3 Bft) W-NW45 295 0 min 11,1 klux 0,00 min 1,7 C -1,5 C
22.03.2009 12:46 4,4 C 5,3 C 84 % 1024 hPa 0,0 l/m 14,3 km/h (3 Bft) W-NW67.5 285 0 min 20,4 klux 0,00 min 1,9 C -1,3 C
22.03.2009 13:01 4,9 C 6,2 C 82 % 1024 hPa 0,0 l/m 16,8 km/h (3 Bft) W-NW22.5 285 0 min 33,3 klux 0,00 min 2,1 C -1,9 C
22.03.2009 13:16 6,0 C 8,8 C 79 % 1024 hPa 0,0 l/m 22,8 km/h (4 Bft) W-NW45 285 15 min 80,2 klux 0,00 min 2,6 C -2,9 C
22.03.2009 13:31 6,0 C 7,9 C 75 % 1024 hPa 0,0 l/m 24,5 km/h (4 Bft) W-NW45 285 0 min 31,3 klux 0,00 min 1,9 C -3,4 C
22.03.2009 13:47 6,4 C 10,3 C 75 % 1024 hPa 0,0 l/m 16,0 km/h (3 Bft) W45 270 16 min 76,8 klux 0,00 min 2,3 C 0,3 C
22.03.2009 14:01 6,7 C 11,0 C 71 % 1024 hPa 0,0 l/m 23,6 km/h (4 Bft) W22.5 280 14 min 68,9 klux 0,00 min 1,8 C -2,2 C
22.03.2009 14:16 6,5 C 9,9 C 69 % 1024 hPa 0,0 l/m 26,0 km/h (4 Bft) W-NW67.5 300 0 min 35,1 klux 0,00 min 1,2 C -3,2 C
22.03.2009 14:31 6,8 C 10,5 C 68 % 1024 hPa 0,0 l/m 21,3 km/h (4 Bft) W-NW45 295 15 min 65,6 klux 0,00 min 1,3 C -1,3 C
22.03.2009 14:46 6,9 C 10,9 C 66 % 1024 hPa 0,0 l/m 23,1 km/h (4 Bft) W45 280 15 min 68,7 klux 0,00 min 1,0 C -1,8 C
22.03.2009 15:01 6,8 C 9,4 C 65 % 1024 hPa 0,0 l/m 23,6 km/h (4 Bft) W-NW67.5 300 0 min 25,3 klux 0,00 min 0,7 C -2,1 C
22.03.2009 15:16 6,8 C 8,7 C 64 % 1024 hPa 0,0 l/m 27,8 km/h (4 Bft) NW67.5 305 0 min 35,8 klux 0,00 min 0,5 C -3,3 C
22.03.2009 15:31 6,9 C 8,5 C 64 % 1024 hPa 0,0 l/m 18,6 km/h (3 Bft) W45 270 0 min 17,3 klux 0,00 min 0,6 C -0,2 C
22.03.2009 15:47 7,2 C 9,1 C 64 % 1024 hPa 0,0 l/m 24,6 km/h (4 Bft) W45 275 16 min 51,4 klux 0,00 min 0,9 C -1,8 C
22.03.2009 16:01 7,1 C 9,8 C 62 % 1023 hPa 0,0 l/m 17,9 km/h (3 Bft) NW67.5 315 14 min 51,2 klux 0,00 min 0,3 C 0,4 C
22.03.2009 16:16 7,2 C 9,6 C 62 % 1023 hPa 0,0 l/m 27,5 km/h (4 Bft) W45 275 0 min 46,0 klux 0,00 min 0,4 C -2,7 C
22.03.2009 16:31 7,2 C 10,6 C 61 % 1023 hPa 0,0 l/m 24,7 km/h (4 Bft) NW67.5 320 0 min 41,9 klux 0,00 min 0,2 C -1,9 C
22.03.2009 16:46 6,9 C 9,2 C 61 % 1023 hPa 0,0 l/m 15,3 km/h (3 Bft) W-NW45 285 0 min 20,4 klux 0,00 min -0,1 C 1,2 C
22.03.2009 17:01 6,8 C 9,9 C 62 % 1023 hPa 0,0 l/m 21,1 km/h (4 Bft) NW45 320 0 min 30,3 klux 0,00 min 0,0 C -1,2 C
22.03.2009 17:16 7,1 C 9,6 C 62 % 1023 hPa 0,0 l/m 20,6 km/h (4 Bft) W45 275 0 min 28,7 klux 0,00 min 0,3 C -0,7 C
22.03.2009 17:32 6,6 C 7,6 C 62 % 1023 hPa 0,0 l/m 20,5 km/h (4 Bft) W-NW45 285 0 min 8,46 klux 0,00 min -0,1 C -1,3 C
22.03.2009 17:46 6,3 C 7,1 C 64 % 1023 hPa 0,0 l/m 22,9 km/h (4 Bft) W-NW45 290 0 min 9,4 klux 0,00 min 0,0 C -2,5 C
22.03.2009 18:01 6,1 C 6,6 C 65 % 1023 hPa 0,0 l/m 16,6 km/h (3 Bft) W22.5 265 0 min 4,75 klux 0,00 min 0,0 C -0,3 C
22.03.2009 18:16 5,9 C 6,1 C 66 % 1023 hPa 0,0 l/m 16,0 km/h (3 Bft) W45 270 0 min 3,36 klux 0,00 min 0,0 C -0,3 C
22.03.2009 18:31 5,6 C 5,9 C 67 % 1023 hPa 0,0 l/m 14,2 km/h (3 Bft) W22.5 270 0 min 1,53 klux 0,00 min -0,0 C 0,2 C
22.03.2009 18:46 5,4 C 5,4 C 68 % 1023 hPa 0,0 l/m 14,0 km/h (3 Bft) W22.5 265 0 min 1,15 klux 0,00 min -0,0 C 0,1 C
22.03.2009 19:01 4,9 C 5,0 C 70 % 1023 hPa 0,0 l/m 19,8 km/h (3 Bft) W22.5 275 0 min 387 lux 0,00 min -0,1 C -3,2 C
22.03.2009 19:17 4,5 C 4,2 C 71 % 1023 hPa 0,0 l/m 23,8 km/h (4 Bft) W22.5 270 0 min 140 lux 0,00 min -0,3 C -5,2 C
22.03.2009 19:31 3,9 C 3,4 C 72 % 1023 hPa 0,0 l/m 12,3 km/h (3 Bft) W22.5 260 0 min 24 lux 0,00 min -0,7 C -0,7 C
22.03.2009 19:46 3,3 C 2,8 C 73 % 1023 hPa 0,0 l/m 12,6 km/h (3 Bft) W22.5 265 0 min 6 lux 0,00 min -1,1 C -1,6 C
22.03.2009 20:01 2,7 C 2,1 C 75 % 1023 hPa 0,0 l/m 14,7 km/h (3 Bft) W22.5 260 0 min 3 lux 0,00 min -1,3 C -3,5 C
22.03.2009 20:16 2,9 C 2,6 C 78 % 1023 hPa 0,0 l/m 14,6 km/h (3 Bft) W22.5 260 0 min 1 lux 0,00 min -0,5 C -3,2 C
22.03.2009 20:31 3,4 C 3,3 C 79 % 1023 hPa 0,0 l/m 15,2 km/h (3 Bft) W22.5 260 0 min 0 lux 0,00 min 0,1 C -3,0 C
22.03.2009 20:46 3,6 C 3,5 C 79 % 1023 hPa 0,0 l/m 11,6 km/h (2 Bft) W 260 0 min 0 lux 0,00 min 0,3 C -0,6 C
22.03.2009 21:02 3,8 C 3,8 C 79 % 1023 hPa 0,0 l/m 12,2 km/h (2 Bft) W22.5 260 0 min 0 lux 0,00 min 0,5 C -0,8 C
22.03.2009 21:16 3,9 C 4,0 C 79 % 1023 hPa 0,0 l/m 15,0 km/h (3 Bft) W-SW22.5 255 0 min 0 lux 0,00 min 0,6 C -2,3 C
22.03.2009 21:31 3,9 C 4,0 C 79 % 1023 hPa 0,0 l/m 17,3 km/h (3 Bft) W22.5 265 0 min 0 lux 0,00 min 0,6 C -3,4 C
22.03.2009 21:46 3,9 C 4,1 C 80 % 1023 hPa 0,0 l/m 21,0 km/h (4 Bft) W22.5 260 0 min 0 lux 0,00 min 0,8 C -5,0 C
22.03.2009 22:01 3,9 C 3,8 C 80 % 1023 hPa 0,0 l/m 15,4 km/h (3 Bft) W22.5 265 0 min 0 lux 0,00 min 0,8 C -2,5 C
22.03.2009 22:16 3,7 C 3,5 C 82 % 1023 hPa 0,0 l/m 25,3 km/h (4 Bft) W22.5 265 0 min 0 lux 0,00 min 0,9 C -6,8 C
22.03.2009 22:31 3,3 C 3,0 C 82 % 1023 hPa 0,0 l/m 12,8 km/h (3 Bft) W22.5 265 0 min 0 lux 0,00 min 0,5 C -1,7 C
22.03.2009 22:47 3,1 C 3,0 C 82 % 1023 hPa 0,0 l/m 12,5 km/h (3 Bft) W22.5 260 0 min 0 lux 0,00 min 0,3 C -1,8 C
22.03.2009 23:01 3,1 C 3,0 C 84 % 1023 hPa 0,0 l/m 12,1 km/h (2 Bft) W-SW22.5 250 0 min 0 lux 0,00 min 0,7 C -1,5 C
22.03.2009 23:16 3,1 C 2,9 C 84 % 1023 hPa 0,0 l/m 10,5 km/h (2 Bft) W-SW 250 0 min 0 lux 0,00 min 0,7 C -0,4 C
22.03.2009 23:31 3,1 C 2,9 C 85 % 1022 hPa 0,0 l/m 10,4 km/h (2 Bft) W-SW22.5 245 0 min 0 lux 0,00 min 0,8 C -0,3 C
22.03.2009 23:46 3,0 C 2,9 C 85 % 1022 hPa 0,0 l/m 11,5 km/h (2 Bft) W-SW22.5 245 0 min 0 lux 0,00 min 0,7 C -1,2 C
22.03.2009 23:55 3,1 C 3,0 C 86 % 1022 hPa 0,0 l/m 11,5 km/h (2 Bft) W-SW 250 0 min 0 lux 0,00 min 1,0 C -1,1 C
_ Min-Zeit 03:31 03:31 16:31 03:16 - 00:01 - - - - - 03:31 08:47
Minimum _ -4,8 C -6,3 C 61 % 1022 hPa - 0,0 km/h (0 Bft) - - - - - -7,7 C -11,0 C
_ Max-Zeit 15:47 14:01 08:47 12:16 00:01 12:16 - - 13:47 13:16 00:01 13:16 16:46
Maximum _ 7,2 C 11,0 C 95 % 1025 hPa 0,0 l/m 31,7 km/h
NW (5 Bft)
- - 16 min 80,2 klux 0,00 min 2,6 C 1,2 C
Durchschnitt _ 1,7 C 1,9 C 79 % 1023 hPa #0,0 l/m 13,4 km/h (3 Bft) W - #1:45 h 11,8 klux #0 min. -1,6 C -3,3 C